Latest Coastal Weather Observations for Portland Harbour

IDV60701

Issued at 4:41 pm EDT Tuesday 27 January 2015 (issued every 10 minutes, with the page automatically refreshed every 10 minutes)

About coastal observations | Map of coastal stations | Coastal observations for VIC | Marine services | Other Formats
Station Details ID: 090192 Name: PORTLAND NTC AWS Lat: -38.34 Lon: 141.61 Height: 0.0 m
Data from the previous 72 hours. | See also: Recent months for locations in Victoria
Date/Time
EDT
Temp

°C
Wind Pressure Rain
since 9am
mm
Weather Cloud Vis
km
Sea
Height
m
Swell
Dir
 
Speed
knots
Gust
knots
hPa Trend Height
m
Period
s
Dir
27/04:30pm 16.0 SE 16 21 1018.9 - - - - - - - - -
27/04:00pm 15.9 SSE 14 19 1019.0 - - - - - - - - -
27/03:30pm 15.8 SSE 17 22 1018.9 - - - - - - - - -
27/03:00pm 15.9 SSE 13 20 1019.0 - - - - - - - - -
27/02:30pm 16.0 SE 12 19 1018.8 - - - - - - - - -
27/02:00pm 16.3 SE 10 16 1019.0 - - - - - - - - -
27/01:30pm 16.4 SE 13 19 1019.2 - - - - - - - - -
27/01:00pm 16.1 SSE 13 20 1019.2 - - - - - - - - -
27/12:30pm 16.4 SSE 12 20 1019.3 - - - - - - - - -
27/12:00pm 15.7 SSE 12 17 1019.4 - - - - - - - - -
27/11:30am 15.7 S 11 16 1019.4 - - - - - - - - -
27/11:00am 15.7 SSE 11 16 1019.4 - - - - - - - - -
27/10:30am 15.7 SSE 9 12 1019.3 - - - - - - - - -
27/10:00am 15.6 S 9 12 1019.2 - - - - - - - - -
27/09:30am 15.4 S 10 13 1019.2 - - - - - - - - -
27/09:00am 15.1 S 11 15 1019.1 - - - - - - - - -
27/08:30am 15.1 S 11 15 1018.8 - - - - - - - - -
27/08:00am 14.9 S 11 15 1018.3 - - - - - - - - -
27/07:30am 14.8 S 8 11 1018.0 - - - - - - - - -
27/07:00am 14.4 S 9 13 1017.8 - - - - - - - - -
27/06:30am 12.3 SW 4 6 1017.6 - - - - - - - - -
27/06:00am 11.1 SW 4 5 1017.5 - - - - - - - - -
27/05:30am 11.3 SW 4 5 1017.4 - - - - - - - - -
27/05:00am 10.6 SW 3 4 1017.5 - - - - - - - - -
27/04:30am 11.2 SW 4 5 1017.6 - - - - - - - - -
27/04:00am 11.2 SW 3 4 1017.8 - - - - - - - - -
27/03:30am 11.3 SW 3 5 1018.1 - - - - - - - - -
27/03:00am 11.6 WSW 4 6 1018.0 - - - - - - - - -
27/02:30am 12.2 SW 4 5 1018.0 - - - - - - - - -
27/02:00am 12.3 WSW 4 5 1018.1 - - - - - - - - -
27/01:30am 12.9 SW 3 4 1018.3 - - - - - - - - -
27/01:00am 13.2 SW 4 4 1018.4 - - - - - - - - -
27/12:30am 13.3 SSW 4 6 1018.6 - - - - - - - - -
27/12:00am 13.3 SSW 4 5 1018.6 - - - - - - - - -
 
Date/Time
EDT
Temp

°C
Wind Pressure Rain
since 9am
mm
Weather Cloud Vis
km
Sea
Height
m
Swell
Dir
 
Speed
knots
Gust
knots
hPa Trend Height
m
Period
s
Dir
26/11:30pm 13.5 SSW 5 5 1018.8 - - - - - - - - -
26/11:00pm 14.0 SSW 4 5 1019.2 - - - - - - - - -
26/10:30pm 14.4 SSW 4 6 1019.2 - - - - - - - - -
26/10:00pm 14.9 S 5 6 1019.1 - - - - - - - - -
26/09:30pm 15.2 S 7 9 1019.0 - - - - - - - - -
26/09:00pm 15.2 S 6 9 1018.8 - - - - - - - - -
26/08:30pm 15.5 S 7 10 1018.5 - - - - - - - - -
26/08:00pm 15.9 S 9 13 1018.3 - - - - - - - - -
26/07:30pm 15.7 S 10 15 1018.0 - - - - - - - - -
26/07:00pm 15.8 S 11 15 1017.9 - - - - - - - - -
26/06:30pm 15.7 S 9 13 1017.8 - - - - - - - - -
26/06:00pm 16.0 S 11 15 1017.7 - - - - - - - - -
26/05:30pm 15.6 S 13 16 1017.8 - - - - - - - - -
26/05:00pm 15.7 S 14 19 1017.9 - - - - - - - - -
26/04:30pm 15.6 SSW 16 19 1018.0 - - - - - - - - -
26/04:00pm 16.3 S 11 17 1017.9 - - - - - - - - -
26/03:30pm 16.1 SSE 12 17 1017.9 - - - - - - - - -
26/03:00pm 16.4 S 12 17 1017.9 - - - - - - - - -
26/02:30pm 15.9 S 14 18 1017.9 - - - - - - - - -
26/02:00pm 15.8 S 13 18 1017.9 - - - - - - - - -
26/01:30pm 15.8 S 12 19 1018.2 - - - - - - - - -
26/01:00pm 15.8 SSW 11 16 1018.3 - - - - - - - - -
26/12:30pm 15.6 SSW 10 15 1018.2 - - - - - - - - -
26/12:00pm 15.6 S 9 12 1018.3 - - - - - - - - -
26/11:30am 15.5 SSW 9 12 1018.6 - - - - - - - - -
26/11:00am 15.5 SSW 9 14 1018.4 - - - - - - - - -
26/10:30am 15.7 SSW 7 12 1018.3 - - - - - - - - -
26/10:00am 15.4 S 6 10 1018.1 - - - - - - - - -
26/09:30am 15.2 SSW 7 10 1018.0 - - - - - - - - -
26/09:00am 15.0 SSW 8 11 1017.7 - - - - - - - - -
26/08:30am 14.4 SSW 2 6 1017.3 - - - - - - - - -
26/08:00am 12.8 SW 3 4 1017.0 - - - - - - - - -
26/07:30am 11.2 SW 3 4 1016.6 - - - - - - - - -
26/07:00am 11.1 SW 3 4 1016.3 - - - - - - - - -
26/06:30am 10.5 WSW 4 5 1016.0 - - - - - - - - -
26/06:00am 10.9 WSW 4 6 1015.6 - - - - - - - - -
26/05:30am 11.1 W 5 7 1015.1 - - - - - - - - -
26/05:00am 11.7 WSW 3 4 1014.9 - - - - - - - - -
26/04:30am 12.3 WSW 4 5 1014.8 - - - - - - - - -
26/04:00am 12.3 WSW 4 5 1014.8 - - - - - - - - -
26/03:30am 13.5 SW 5 7 1014.7 - - - - - - - - -
26/03:00am 13.4 SW 5 8 1014.6 - - - - - - - - -
26/02:30am 13.8 SW 5 9 1014.5 - - - - - - - - -
26/02:00am 13.2 SW 4 6 1014.4 - - - - - - - - -
26/01:30am 13.7 SW 6 7 1014.4 - - - - - - - - -
26/01:00am 13.7 SW 5 7 1014.3 - - - - - - - - -
26/12:30am 13.8 SW 6 8 1014.3 - - - - - - - - -
26/12:00am 14.1 SW 5 8 1014.3 - - - - - - - - -
 
Date/Time
EDT
Temp

°C
Wind Pressure Rain
since 9am
mm
Weather Cloud Vis
km
Sea
Height
m
Swell
Dir
 
Speed
knots
Gust
knots
hPa Trend Height
m
Period
s
Dir
25/11:30pm 14.3 SW 7 9 1014.2 - - - - - - - - -
25/11:00pm 14.4 SW 7 10 1014.1 - - - - - - - - -
25/10:30pm 14.1 WSW 5 8 1014.0 - - - - - - - - -
25/10:00pm 14.2 SW 6 8 1013.7 - - - - - - - - -
25/09:30pm 14.5 SW 9 11 1013.4 - - - - - - - - -
25/09:00pm 14.4 WSW 8 11 1013.2 - - - - - - - - -
25/08:30pm 15.0 WSW 9 13 1013.0 - - - - - - - - -
25/08:00pm 15.3 SW 12 18 1012.8 - - - - - - - - -
25/07:30pm 15.2 SW 15 20 1012.5 - - - - - - - - -
25/07:00pm 15.7 SW 15 21 1012.2 - - - - - - - - -
25/06:30pm 15.9 SW 15 22 1012.0 - - - - - - - - -
25/06:00pm 16.2 WSW 14 19 1012.0 - - - - - - - - -
25/05:30pm 15.9 SW 18 24 1011.8 - - - - - - - - -
25/05:00pm 15.1 SW 16 24 1011.7 - - - - - - - - -
25/04:56pm 15.0 SW 17 28 1011.7 - - - - - - - - -
25/04:47pm 15.2 WSW 19 27 1011.7 - - - - - - - - -
25/04:30pm 15.6 WSW 17 25 1011.2 - - - - - - - - -
25/04:00pm 16.2 WSW 12 23 1011.3 - - - - - - - - -
25/03:30pm 15.5 WSW 17 23 1011.3 - - - - - - - - -
25/03:00pm 15.6 WSW 17 25 1011.2 - - - - - - - - -
25/02:34pm 15.8 WSW 17 31 1011.1 - - - - - - - - -
25/02:30pm 16.1 WSW 16 23 1010.9 - - - - - - - - -
25/02:08pm 15.9 SW 18 29 1010.8 - - - - - - - - -
25/02:00pm 16.1 WSW 18 25 1010.7 - - - - - - - - -
25/01:33pm 15.8 WSW 17 27 1010.7 - - - - - - - - -
25/01:30pm 15.7 WSW 17 24 1010.7 - - - - - - - - -
25/01:00pm 15.6 WSW 17 25 1010.6 - - - - - - - - -
25/12:30pm 13.9 W 17 29 1010.5 - - - - - - - - -
25/12:00pm 13.9 WSW 16 28 1010.3 - - - - - - - - -
25/11:30am 15.9 WSW 19 30 1009.6 - - - - - - - - -
25/11:26am 15.8 WSW 18 30 1009.6 - - - - - - - - -
25/11:00am 15.0 WSW 19 27 1009.5 - - - - - - - - -
25/10:30am 15.9 WSW 18 26 1009.1 - - - - - - - - -
25/10:11am 15.7 WSW 16 27 1008.9 - - - - - - - - -
25/10:00am 15.6 WSW 17 25 1008.8 - - - - - - - - -
25/09:30am 15.8 WSW 17 24 1008.5 - - - - - - - - -
25/09:05am 15.2 WSW 15 26 1008.2 - - - - - - - - -
25/09:00am 15.0 WSW 16 25 1008.2 - - - - - - - - -
25/08:30am 15.2 WSW 13 21 1007.7 - - - - - - - - -
25/08:00am 14.9 WSW 13 23 1007.1 - - - - - - - - -
25/07:30am 14.7 WSW 11 17 1006.8 - - - - - - - - -
25/07:00am 13.9 WSW 8 11 1006.4 - - - - - - - - -
25/06:30am 13.9 W 9 14 1006.2 - - - - - - - - -
25/06:00am 13.9 WSW 8 12 1006.0 - - - - - - - - -
25/05:30am 13.7 SW 11 16 1005.7 - - - - - - - - -
25/05:00am 14.4 WSW 11 15 1005.4 - - - - - - - - -
25/04:30am 14.2 WSW 9 13 1005.2 - - - - - - - - -
25/04:00am 14.6 WSW 12 16 1005.1 - - - - - - - - -
25/03:30am 14.8 SW 13 21 1005.0 - - - - - - - - -
25/03:00am 14.8 WSW 11 15 1005.0 - - - - - - - - -
25/02:30am 15.0 SW 11 15 1004.9 - - - - - - - - -
25/02:00am 13.7 W 5 7 1004.9 - - - - - - - - -
25/01:30am 14.2 SW 15 22 1005.0 - - - - - - - - -
25/01:00am 14.5 W 7 14 1004.8 - - - - - - - - -
25/12:30am 14.3 WNW 5 7 1004.3 - - - - - - - - -
25/12:00am 14.2 WSW 11 18 1004.5 - - - - - - - - -
 
Date/Time
EDT
Temp

°C
Wind Pressure Rain
since 9am
mm
Weather Cloud Vis
km
Sea
Height
m
Swell
Dir
 
Speed
knots
Gust
knots
hPa Trend Height
m
Period
s
Dir
24/11:30pm 14.7 W 8 13 1004.4 - - - - - - - - -
24/11:00pm 14.6 WSW 12 17 1004.3 - - - - - - - - -
24/10:30pm 15.7 W 12 19 1003.9 - - - - - - - - -
24/10:00pm 16.1 WNW 11 17 1003.4 - - - - - - - - -
24/09:30pm 15.8 W 12 19 1003.1 - - - - - - - - -
24/09:07pm 16.9 W 17 28 1003.0 - - - - - - - - -
24/09:00pm 17.9 W 18 26 1002.7 - - - - - - - - -
24/08:46pm 18.9 W 15 26 1002.5 - - - - - - - - -
24/08:30pm 19.1 W 14 23 1002.5 - - - - - - - - -
24/08:01pm 19.9 W 17 27 1002.2 - - - - - - - - -
24/08:00pm 20.0 W 18 27 1002.2 - - - - - - - - -
24/07:34pm 20.5 W 17 29 1001.7 - - - - - - - - -
24/07:30pm 20.4 WNW 18 26 1001.7 - - - - - - - - -
24/07:00pm 20.6 W 20 32 1001.7 - - - - - - - - -
24/06:30pm 21.2 W 17 28 1001.7 - - - - - - - - -
24/06:23pm 21.4 W 17 27 1001.8 - - - - - - - - -
24/06:00pm 21.1 W 20 28 1001.8 - - - - - - - - -
24/05:45pm 21.1 W 16 26 1001.9 - - - - - - - - -
24/05:30pm 20.8 W 17 25 1002.2 - - - - - - - - -
24/05:00pm 22.2 W 18 26 1002.2 - - - - - - - - -

Other Formats:

Comma delimited format used in spreadsheet applications
http://www.bom.gov.au/fwo/IDV60701/IDV60701.95826.axf

JavaScript Object Notation format (JSON) in row-major order
http://www.bom.gov.au/fwo/IDV60701/IDV60701.95826.json